Aviation Digital Data Service (ADDS)

Output produced by METARs form (1456 UTC 11 December 2017)
found at http://www.aviationweather.gov/adds/metars/
 
KBFD 111453Z AUTO VRB04KT 1 3/4SM -SN BR OVC009 M04/M06 A2994 RMK AO2 CIG 007V012 SLP163 P0000 60001 T10391056 50005
KBFD 111451Z AUTO 24004KT 1 3/4SM -SN BR OVC009 M04/M06 A2994 RMK AO2 CIG 007V012 P0000
KBFD 111442Z AUTO 24004KT 2SM -SN BR OVC009 M04/M06 A2994 RMK AO2 CIG 007V012 P0000 T10391056
KBFD 111432Z AUTO 23005KT 1SM -SN BR OVC010 M04/M06 A2994 RMK AO2 CIG 007V012 P0000 T10441056
KBFD 111404Z AUTO 28006KT 1 3/4SM -SN BR BKN008 OVC016 M04/M06 A2994 RMK AO2 CIG 007V012 P0000 T10391056
KBFD 111353Z AUTO 28005KT 1 3/4SM -SN BR BKN010 OVC016 M04/M05 A2994 RMK AO2 CIG 007V012 SLP162 P0001 T10391050
KBFD 111320Z AUTO 26005KT 2SM -SN BR OVC014 M04/M06 A2992 RMK AO2 P0000 T10441056
KBFD 111307Z AUTO 26006KT 4SM -SN BR SCT009 OVC014 M04/M06 A2992 RMK AO2 P0000 T10391056
KBFD 111253Z AUTO 25006KT 6SM -SN BR BKN011 OVC018 M04/M06 A2992 RMK AO2 SNB52 SLP157 P0000 T10391056
KBFD 111234Z AUTO 27005KT 7SM BKN010 OVC013 M04/M06 A2992 RMK AO2 CIG 007V012 T10391056
KBFD 111153Z AUTO VRB04KT 6SM BR OVC007 M04/M05 A2991 RMK AO2 SNE1056 SLP152 P0000 60000 70001 I1000 I6000 T10391050 11039 21056 53014
KBFD 111053Z AUTO 25004KT 4SM -SN BR OVC007 M04/M06 A2989 RMK AO2 SLP148 P0000 T10441056
KBFD 111042Z AUTO 27004KT 3SM -SN BR OVC009 M04/M06 A2989 RMK AO2 CIG 007V012 P0000 T10441056
KBFD 111035Z AUTO 24006KT 2 1/2SM -SN BR OVC009 M04/M06 A2989 RMK AO2 CIG 007V012 P0000 T10441056
KBFD 111025Z AUTO 26005KT 1 3/4SM -SN BR BKN008 OVC011 M04/M06 A2989 RMK AO2 P0000 T10441056
KBFD 111005Z AUTO 27006KT 2SM -SN BR OVC008 M04/M06 A2988 RMK AO2 P0000 T10441056
KBFD 110953Z AUTO VRB05KT 4SM -SN BR OVC008 M04/M06 A2987 RMK AO2 SNE26B45 SLP140 P0000 T10441056
KBFD 110853Z AUTO 27003KT 5SM -SN BR OVC008 M04/M06 A2986 RMK AO2 SLP137 P0000 60000 T10441061 51009
KBFD 110827Z AUTO 24007KT 3SM -SN BR OVC009 M05/M06 A2986 RMK AO2 P0000 T10501061
KBFD 110753Z AUTO 24004KT 4SM -SN BR OVC010 M05/M06 A2986 RMK AO2 SNB37 SLP136 P0000 T10501061
KBFD 110653Z AUTO 25007KT 10SM OVC013 M05/M07 A2984 RMK AO2 SNE10 SLP131 P0000 T10501067
KBFD 110617Z AUTO VRB04KT 8SM BKN011 BKN027 OVC050 M06/M07 A2983 RMK AO2 SNE10 P0000 T10561067
KBFD 110553Z AUTO 23005KT 5SM -SN BR FEW011 OVC050 M06/M07 A2983 RMK AO2 SLP128 P0000 60000 T10561067 11044 21056 58008
KBFD 110453Z AUTO 23007KT 4SM -SN BR OVC060 M06/M07 A2985 RMK AO2 SLP132 P0000 T10561072 410331056
KBFD 110402Z AUTO VRB04KT 3SM -SN BR FEW020 OVC033 M05/M07 A2986 RMK AO2 P0000 T10501072
KBFD 110353Z AUTO VRB05KT 2SM -SN BR SCT020 OVC029 M05/M07 A2986 RMK AO2 SNB26 SLP136 P0000 T10501072
KBFD 110348Z AUTO VRB05G14KT 2SM -SN SCT021 OVC025 M05/M08 A2986 RMK AO2 SNB26 P0000
KBFD 110306Z AUTO 25007G16KT 210V270 10SM SCT018 BKN024 OVC044 M05/M08 A2986 RMK AO2 T10501078
KBFD 110253Z AUTO 10SM SCT018 SCT024 OVC045 M04/M08 A2986 RMK AO2 SLP137 T10441078 50006
KBFD 110239Z AUTO 24007KT 200V270 10SM FEW018 SCT024 OVC046 M04/M08 A2986 RMK AO2 T10441078
KBFD 110209Z AUTO VRB05KT 8SM SCT020 BKN027 OVC049 M04/M08 A2987 RMK AO2 T10441078
KBFD 110153Z AUTO 25007KT 9SM FEW025 OVC049 M04/M08 A2987 RMK AO2 SLP138 T10441078
KBFD 110053Z AUTO 23006KT 10SM OVC050 M04/M08 A2986 RMK AO2 SLP136 T10441083
KBFD 102353Z AUTO 23005KT 10SM SCT022 OVC070 M04/M08 A2985 RMK AO2 SLP131 60000 T10441078 11033 21044 51010
KBFD 102317Z AUTO 23009G14KT 10SM BKN020 BKN045 OVC050 M04/M08 A2984 RMK AO2 T10441078
KBFD 102253Z AUTO 23006KT 10SM FEW017 SCT044 OVC080 M04/M08 A2984 RMK AO2 SNE35 SLP127 P0000 T10441078
KBFD 102245Z AUTO VRB05KT 10SM FEW017 BKN044 OVC080 M04/M08 A2984 RMK AO2 SNE35 P0000 T10441078
KBFD 102153Z AUTO 23008G15KT 7SM -SN BKN022 OVC028 M04/M08 A2984 RMK AO2 SNB07 SLP129 P0000 T10441078
KBFD 102053Z AUTO 23007KT 10SM SCT020 BKN026 OVC030 M04/M08 A2982 RMK AO2 SNE32 SLP120 P0000 60000 T10391078 53000
KBFD 101953Z AUTO VRB06G18KT 5SM -SN BKN022 OVC032 M04/M08 A2981 RMK AO2 SLP119 P0000 T10391078
KBFD 101950Z AUTO 22010G18KT 5SM -SN BKN024 OVC033 M04/M08 A2981 RMK AO2 P0000
KBFD 101930Z AUTO 25006G19KT 5SM -SN SCT024 OVC032 M04/M08 A2981 RMK AO2 P0000 T10391083
KBFD 101853Z AUTO 22009G17KT 180V260 7SM -SN OVC027 M04/M08 A2982 RMK AO2 SNB52 SLP120 P0000 T10391083
KBFD 101753Z AUTO 25008G17KT 10SM BKN024 BKN030 OVC042 M03/M08 A2982 RMK AO2 SNB26E37 SLP122 P0000 60001 T10331083 11033 21039 58004
KBFD 101653Z AUTO 25008G21KT 9SM BKN019 OVC025 M03/M07 A2982 RMK AO2 SNE26 SLP123 P0001 T10331072
KBFD 101621Z AUTO 26008G16KT 3SM -SN BR SCT011 BKN016 OVC023 M04/M06 A2983 RMK AO2 P0001 T10391061
KBFD 101618Z AUTO 27012G17KT 2SM -SN BR BKN013 BKN020 OVC026 M04/M06 A2983 RMK AO2 P0001 T10391056
KBFD 101607Z AUTO 27009KT 3/4SM -SN BR BKN013 OVC017 M04/M06 A2983 RMK AO2 P0001 T10391056
KBFD 101553Z AUTO 29007KT 1 3/4SM -SN BR BKN013 OVC018 M04/M06 A2983 RMK AO2 SLP125 P0000 T10391061
KBFD 101534Z AUTO 27009G17KT 2SM -SN BR BKN013 OVC019 M04/M06 A2983 RMK AO2 VIS 1 3/4V3 P0000 T10391061
KBFD 101521Z AUTO 28011G19KT 1 1/4SM -SN BR BKN011 OVC019 M04/M06 A2983 RMK AO2 P0000 T10391061
KBFD 101510Z AUTO 27008G15KT 2 1/2SM -SN BR BKN014 OVC021 M03/M06 A2983 RMK AO2 P0000 T10331056
KBFD 101500Z AUTO 28008G16KT 3SM -SN BR BKN014 BKN018 OVC032 M03/M06 A2983 RMK AO2 P0000 T10331056
KBFD 101453Z AUTO 27008KT 1 1/4SM -SN BR BKN014 OVC020 M03/M05 A2983 RMK AO2 SLP125 P0000 60000 T10331050 51016
KBFD 101435Z AUTO 27008G14KT 1 3/4SM -SN BR BKN012 BKN018 OVC023 M04/M06 A2983 RMK AO2 P0000 T10391056
KBFD 101433Z AUTO 27007G14KT 2SM -SN BR FEW010 BKN015 OVC023 M04/M06 A2983 RMK AO2 P0000 T10391056
KBFD 101427Z AUTO 28009KT 1 3/4SM -SN BR BKN013 BKN017 OVC024 M04/M06 A2983 RMK AO2 P0000 T10391056
KBFD 101417Z AUTO 27006KT 2SM -SN BR BKN013 BKN017 OVC022 M04/M06 A2983 RMK AO2 P0000 T10391056
KBFD 101401Z AUTO 28007KT 1 1/2SM -SN BR BKN011 BKN015 OVC023 M04/M05 A2982 RMK AO2 P0000 T10391050
KBFD 101353Z AUTO 27008KT 2SM -SN BR BKN015 OVC023 M04/M06 A2982 RMK AO2 SLP122 P0000 T10391056
KBFD 101348Z AUTO 27006KT 2SM -SN BR BKN015 BKN023 OVC032 M04/M06 A2982 RMK AO2 P0000
KBFD 101340Z AUTO 28008KT 1/2SM -SN FZFG BKN014 BKN023 OVC031 M04/M06 A2982 RMK AO2 P0000 T10391056
KBFD 101326Z AUTO 27006KT 3/4SM -SN BR FEW011 BKN023 OVC032 M04/M05 A2981 RMK AO2 P0000 T10391050
KBFD 101315Z AUTO 27006KT 1SM -SN BR FEW009 BKN021 OVC040 M04/M05 A2981 RMK AO2 P0000 T10391050
KBFD 101301Z AUTO 26005KT 1 3/4SM -SN BR FEW013 SCT021 OVC034 M04/M06 A2981 RMK AO2 P0000 T10391056
KBFD 101253Z AUTO 27007KT 3SM -SN BR FEW013 BKN037 OVC043 M04/M06 A2981 RMK AO2 SNB1157 SLP116 P0000 T10391056
KBFD 101245Z AUTO 27006KT 3SM -SN BR SCT013 SCT022 OVC037 M04/M06 A2980 RMK AO2 SNB1157 P0000 T10391056
KBFD 101153Z AUTO 26007KT 7SM OVC012 M04/M06 A2978 RMK AO2 SNE27 SLP106 P0000 60001 70001 T10391056 11039 21050 53014
KBFD 101121Z AUTO 27006KT 6SM -SN BR OVC010 M04/M06 A2977 RMK AO2 CIG 008V014 P0000 T10391056
KBFD 101053Z AUTO 26005KT 5SM -SN BR OVC008 M04/M06 A2976 RMK AO2 SLP100 P0001 T10391056
KBFD 101004Z AUTO 22007KT 4SM -SN BR OVC007 M04/M06 A2974 RMK AO2 P0001 T10441056
KBFD 100953Z AUTO 24006KT 2 1/2SM -SN BR OVC007 M04/M06 A2974 RMK AO2 SLP095 P0000 T10441056
KBFD 100908Z AUTO VRB06KT 4SM -SN BR OVC007 M04/M06 A2974 RMK AO2 P0000 T10441061
KBFD 100853Z AUTO 25006KT 4SM -SN BR OVC010 M04/M06 A2974 RMK AO2 CIG 007V015 SLP090 P0000 60000 T10441061 53004
KBFD 100851Z AUTO 26007KT 3SM -SN BR OVC010 M04/M06 A2974 RMK AO2 CIG 007V015 P0000
KBFD 100846Z AUTO VRB05KT 1 1/2SM -SN BR OVC011 M04/M06 A2974 RMK AO2 CIG 007V012 P0000 T10441061
KBFD 100834Z AUTO VRB05KT 2 1/2SM -SN BR OVC011 M04/M06 A2974 RMK AO2 P0000 T10441061
KBFD 100824Z AUTO VRB06KT 3SM -SN BR OVC012 M04/M06 A2974 RMK AO2 P0000 T10441061
KBFD 100800Z AUTO 24006KT 2 1/2SM -SN BR OVC013 M05/M07 A2973 RMK AO2 P0000 T10501067
KBFD 100753Z AUTO VRB05KT 3SM -SN BR OVC011 M04/M07 A2973 RMK AO2 UPB01E13SNB0655E01B13 SLP089 P0000 T10441067
KBFD 100718Z AUTO 26006KT 6SM -SN BKN013 OVC021 M04/M07 A2973 RMK AO2 UPB01E13SNB0655E01B13 P0000 T10441072
KBFD 100653Z AUTO VRB05KT 8SM BKN022 OVC036 M04/M07 A2972 RMK AO2 SNB09E53 SLP086 P0000 T10441072
KBFD 100651Z AUTO 25004KT 8SM -SN BKN022 OVC036 M04/M07 A2972 RMK AO2 SNB09 P0000
KBFD 100553Z AUTO VRB03KT 9SM OVC050 M05/M08 A2972 RMK AO2 SLP086 T10501083 11022 21050 51005
KBFD 100453Z AUTO 28006KT 10SM BKN090 M04/M09 A2972 RMK AO2 SLP087 T10441089 400001111
KBFD 100353Z AUTO VRB05KT 10SM CLR M04/M10 A2971 RMK AO2 SLP086 T10391100